sensor_id;sensor_type;location;lat;lon;timestamp;P1;durP1;ratioP1;P2;durP2;ratioP2
3307;SDS011;1666;48.898;9.182;2022-08-01T00:00:17;3.25;;;2.45;;
3307;SDS011;1666;48.898;9.182;2022-08-01T00:02:46;5.38;;;2.17;;
3307;SDS011;1666;48.898;9.182;2022-08-01T00:05:16;6.07;;;2.50;;
3307;SDS011;1666;48.898;9.182;2022-08-01T00:07:46;3.10;;;1.90;;
3307;SDS011;1666;48.898;9.182;2022-08-01T00:10:19;3.25;;;2.08;;
3307;SDS011;1666;48.898;9.182;2022-08-01T00:12:49;3.17;;;1.95;;
3307;SDS011;1666;48.898;9.182;2022-08-01T00:15:19;3.13;;;1.95;;
3307;SDS011;1666;48.898;9.182;2022-08-01T00:17:49;3.55;;;2.33;;
3307;SDS011;1666;48.898;9.182;2022-08-01T00:20:19;2.55;;;2.28;;
3307;SDS011;1666;48.898;9.182;2022-08-01T00:22:49;3.95;;;2.15;;
3307;SDS011;1666;48.898;9.182;2022-08-01T00:25:21;3.75;;;2.25;;
3307;SDS011;1666;48.898;9.182;2022-08-01T00:28:00;3.50;;;2.10;;
3307;SDS011;1666;48.898;9.182;2022-08-01T00:30:30;3.20;;;2.33;;
3307;SDS011;1666;48.898;9.182;2022-08-01T00:33:00;2.58;;;2.00;;
3307;SDS011;1666;48.898;9.182;2022-08-01T00:35:30;4.65;;;2.10;;
3307;SDS011;1666;48.898;9.182;2022-08-01T00:37:59;4.60;;;2.10;;
3307;SDS011;1666;48.898;9.182;2022-08-01T00:40:35;2.47;;;2.22;;
3307;SDS011;1666;48.898;9.182;2022-08-01T00:43:04;2.63;;;2.20;;
3307;SDS011;1666;48.898;9.182;2022-08-01T00:45:37;2.97;;;2.40;;
3307;SDS011;1666;48.898;9.182;2022-08-01T00:48:09;2.63;;;2.15;;
3307;SDS011;1666;48.898;9.182;2022-08-01T00:50:39;2.75;;;2.15;;
3307;SDS011;1666;48.898;9.182;2022-08-01T00:53:18;3.35;;;2.47;;
3307;SDS011;1666;48.898;9.182;2022-08-01T00:55:53;2.80;;;2.20;;
3307;SDS011;1666;48.898;9.182;2022-08-01T00:58:26;2.65;;;2.22;;
3307;SDS011;1666;48.898;9.182;2022-08-01T01:00:58;3.45;;;2.17;;
3307;SDS011;1666;48.898;9.182;2022-08-01T01:03:36;3.75;;;2.33;;
3307;SDS011;1666;48.898;9.182;2022-08-01T01:06:26;3.60;;;2.50;;
3307;SDS011;1666;48.898;9.182;2022-08-01T01:09:17;3.97;;;2.40;;
3307;SDS011;1666;48.898;9.182;2022-08-01T01:12:01;3.13;;;2.00;;
3307;SDS011;1666;48.898;9.182;2022-08-01T01:14:41;3.40;;;2.33;;
3307;SDS011;1666;48.898;9.182;2022-08-01T01:17:14;3.35;;;2.40;;
3307;SDS011;1666;48.898;9.182;2022-08-01T01:20:07;3.70;;;2.53;;
3307;SDS011;1666;48.898;9.182;2022-08-01T01:25:50;2.67;;;2.10;;
3307;SDS011;1666;48.898;9.182;2022-08-01T01:28:32;3.70;;;2.80;;
3307;SDS011;1666;48.898;9.182;2022-08-01T01:31:13;2.65;;;2.15;;
3307;SDS011;1666;48.898;9.182;2022-08-01T01:33:48;2.28;;;2.08;;
3307;SDS011;1666;48.898;9.182;2022-08-01T01:36:19;3.10;;;2.35;;
3307;SDS011;1666;48.898;9.182;2022-08-01T01:38:51;3.15;;;2.40;;
3307;SDS011;1666;48.898;9.182;2022-08-01T01:41:22;2.60;;;2.38;;
3307;SDS011;1666;48.898;9.182;2022-08-01T01:43:53;3.78;;;2.50;;
3307;SDS011;1666;48.898;9.182;2022-08-01T01:46:26;7.53;;;2.50;;
3307;SDS011;1666;48.898;9.182;2022-08-01T01:49:00;3.90;;;2.53;;
3307;SDS011;1666;48.898;9.182;2022-08-01T01:51:36;3.15;;;2.47;;
3307;SDS011;1666;48.898;9.182;2022-08-01T01:54:19;6.72;;;2.72;;
3307;SDS011;1666;48.898;9.182;2022-08-01T01:56:51;4.53;;;2.22;;
3307;SDS011;1666;48.898;9.182;2022-08-01T01:59:25;3.47;;;2.65;;
3307;SDS011;1666;48.898;9.182;2022-08-01T02:02:04;3.27;;;2.27;;
3307;SDS011;1666;48.898;9.182;2022-08-01T02:04:37;2.97;;;2.05;;
3307;SDS011;1666;48.898;9.182;2022-08-01T02:07:12;3.88;;;2.60;;
3307;SDS011;1666;48.898;9.182;2022-08-01T02:09:45;3.78;;;2.40;;
3307;SDS011;1666;48.898;9.182;2022-08-01T02:12:17;4.60;;;2.70;;
3307;SDS011;1666;48.898;9.182;2022-08-01T02:14:49;2.65;;;2.45;;
3307;SDS011;1666;48.898;9.182;2022-08-01T02:17:24;2.50;;;2.30;;
3307;SDS011;1666;48.898;9.182;2022-08-01T02:19:55;2.67;;;2.20;;
3307;SDS011;1666;48.898;9.182;2022-08-01T02:22:27;4.93;;;2.60;;
3307;SDS011;1666;48.898;9.182;2022-08-01T02:25:03;3.95;;;2.58;;
3307;SDS011;1666;48.898;9.182;2022-08-01T02:27:41;2.92;;;2.63;;
3307;SDS011;1666;48.898;9.182;2022-08-01T02:30:14;3.92;;;2.58;;
3307;SDS011;1666;48.898;9.182;2022-08-01T02:32:48;3.22;;;2.30;;
3307;SDS011;1666;48.898;9.182;2022-08-01T02:35:23;3.50;;;2.60;;
3307;SDS011;1666;48.898;9.182;2022-08-01T02:37:57;2.90;;;2.67;;
3307;SDS011;1666;48.898;9.182;2022-08-01T02:40:28;2.42;;;2.20;;
3307;SDS011;1666;48.898;9.182;2022-08-01T02:43:02;3.83;;;2.40;;
3307;SDS011;1666;48.898;9.182;2022-08-01T02:45:34;2.95;;;2.38;;
3307;SDS011;1666;48.898;9.182;2022-08-01T02:48:09;3.78;;;2.25;;
3307;SDS011;1666;48.898;9.182;2022-08-01T02:50:42;5.28;;;2.80;;
3307;SDS011;1666;48.898;9.182;2022-08-01T02:53:14;6.15;;;2.85;;
3307;SDS011;1666;48.898;9.182;2022-08-01T02:56:08;3.25;;;2.92;;
3307;SDS011;1666;48.898;9.182;2022-08-01T02:58:39;3.15;;;2.50;;
3307;SDS011;1666;48.898;9.182;2022-08-01T03:01:11;2.85;;;2.25;;
3307;SDS011;1666;48.898;9.182;2022-08-01T03:03:47;7.25;;;2.50;;
3307;SDS011;1666;48.898;9.182;2022-08-01T03:06:17;5.20;;;2.75;;
3307;SDS011;1666;48.898;9.182;2022-08-01T03:08:49;2.85;;;2.45;;
3307;SDS011;1666;48.898;9.182;2022-08-01T03:11:21;5.57;;;2.50;;
3307;SDS011;1666;48.898;9.182;2022-08-01T03:13:53;3.33;;;2.38;;
3307;SDS011;1666;48.898;9.182;2022-08-01T03:16:24;2.72;;;2.38;;
3307;SDS011;1666;48.898;9.182;2022-08-01T03:18:58;3.92;;;2.50;;
3307;SDS011;1666;48.898;9.182;2022-08-01T03:21:30;2.72;;;2.53;;
3307;SDS011;1666;48.898;9.182;2022-08-01T03:24:01;4.10;;;2.92;;
3307;SDS011;1666;48.898;9.182;2022-08-01T03:26:34;4.28;;;2.53;;
3307;SDS011;1666;48.898;9.182;2022-08-01T03:29:08;4.03;;;2.70;;
3307;SDS011;1666;48.898;9.182;2022-08-01T03:31:41;3.42;;;2.53;;
3307;SDS011;1666;48.898;9.182;2022-08-01T03:34:17;2.92;;;2.40;;
3307;SDS011;1666;48.898;9.182;2022-08-01T03:36:53;4.00;;;2.80;;
3307;SDS011;1666;48.898;9.182;2022-08-01T03:39:31;3.20;;;2.50;;
3307;SDS011;1666;48.898;9.182;2022-08-01T03:42:05;3.22;;;2.53;;
3307;SDS011;1666;48.898;9.182;2022-08-01T03:44:39;3.83;;;2.20;;
3307;SDS011;1666;48.898;9.182;2022-08-01T03:47:10;3.45;;;2.47;;
3307;SDS011;1666;48.898;9.182;2022-08-01T03:49:44;4.35;;;2.55;;
3307;SDS011;1666;48.898;9.182;2022-08-01T03:52:15;2.92;;;2.50;;
3307;SDS011;1666;48.898;9.182;2022-08-01T03:54:46;3.17;;;2.55;;
3307;SDS011;1666;48.898;9.182;2022-08-01T03:57:18;2.90;;;2.40;;
3307;SDS011;1666;48.898;9.182;2022-08-01T04:00:03;3.17;;;2.45;;
3307;SDS011;1666;48.898;9.182;2022-08-01T04:02:36;3.28;;;2.45;;
3307;SDS011;1666;48.898;9.182;2022-08-01T04:05:09;3.67;;;2.33;;
3307;SDS011;1666;48.898;9.182;2022-08-01T04:07:39;5.22;;;2.70;;
3307;SDS011;1666;48.898;9.182;2022-08-01T04:10:14;4.20;;;2.40;;
3307;SDS011;1666;48.898;9.182;2022-08-01T04:12:45;5.35;;;3.47;;
3307;SDS011;1666;48.898;9.182;2022-08-01T04:15:15;4.60;;;2.70;;
3307;SDS011;1666;48.898;9.182;2022-08-01T04:17:46;4.18;;;2.47;;
3307;SDS011;1666;48.898;9.182;2022-08-01T04:20:20;3.08;;;2.40;;
3307;SDS011;1666;48.898;9.182;2022-08-01T04:22:51;3.72;;;2.30;;
3307;SDS011;1666;48.898;9.182;2022-08-01T04:25:23;2.38;;;2.17;;
3307;SDS011;1666;48.898;9.182;2022-08-01T04:27:57;2.70;;;2.40;;
3307;SDS011;1666;48.898;9.182;2022-08-01T04:30:30;2.88;;;2.15;;
3307;SDS011;1666;48.898;9.182;2022-08-01T04:33:03;3.45;;;2.53;;
3307;SDS011;1666;48.898;9.182;2022-08-01T04:35:39;3.85;;;2.35;;
3307;SDS011;1666;48.898;9.182;2022-08-01T04:38:30;3.08;;;2.00;;
3307;SDS011;1666;48.898;9.182;2022-08-01T04:41:03;2.20;;;2.00;;
3307;SDS011;1666;48.898;9.182;2022-08-01T04:43:35;4.57;;;2.38;;
3307;SDS011;1666;48.898;9.182;2022-08-01T04:46:06;5.25;;;2.20;;
3307;SDS011;1666;48.898;9.182;2022-08-01T04:48:37;6.20;;;2.33;;
3307;SDS011;1666;48.898;9.182;2022-08-01T04:51:13;3.78;;;2.22;;
3307;SDS011;1666;48.898;9.182;2022-08-01T04:53:48;3.15;;;1.80;;
3307;SDS011;1666;48.898;9.182;2022-08-01T04:56:19;4.22;;;2.35;;
3307;SDS011;1666;48.898;9.182;2022-08-01T04:58:49;2.92;;;1.88;;
3307;SDS011;1666;48.898;9.182;2022-08-01T05:01:47;3.40;;;1.88;;
3307;SDS011;1666;48.898;9.182;2022-08-01T05:04:18;4.97;;;2.15;;
3307;SDS011;1666;48.898;9.182;2022-08-01T05:06:50;3.75;;;1.85;;
3307;SDS011;1666;48.898;9.182;2022-08-01T05:09:20;7.53;;;1.75;;
3307;SDS011;1666;48.898;9.182;2022-08-01T05:11:56;6.80;;;2.13;;
3307;SDS011;1666;48.898;9.182;2022-08-01T05:14:28;2.13;;;1.70;;
3307;SDS011;1666;48.898;9.182;2022-08-01T05:16:59;5.45;;;1.80;;
3307;SDS011;1666;48.898;9.182;2022-08-01T05:19:30;4.50;;;1.73;;
3307;SDS011;1666;48.898;9.182;2022-08-01T05:22:05;3.03;;;1.70;;
3307;SDS011;1666;48.898;9.182;2022-08-01T05:24:37;3.70;;;1.98;;
3307;SDS011;1666;48.898;9.182;2022-08-01T05:27:10;3.92;;;1.90;;
3307;SDS011;1666;48.898;9.182;2022-08-01T05:29:41;3.92;;;1.92;;
3307;SDS011;1666;48.898;9.182;2022-08-01T05:32:11;1.85;;;1.55;;
3307;SDS011;1666;48.898;9.182;2022-08-01T05:34:41;2.78;;;1.90;;
3307;SDS011;1666;48.898;9.182;2022-08-01T05:37:14;3.78;;;1.83;;
3307;SDS011;1666;48.898;9.182;2022-08-01T05:39:44;7.30;;;2.03;;
3307;SDS011;1666;48.898;9.182;2022-08-01T05:42:13;6.35;;;2.08;;
3307;SDS011;1666;48.898;9.182;2022-08-01T05:44:43;2.10;;;1.70;;
3307;SDS011;1666;48.898;9.182;2022-08-01T05:47:14;3.83;;;1.55;;
3307;SDS011;1666;48.898;9.182;2022-08-01T05:49:43;4.57;;;2.13;;
3307;SDS011;1666;48.898;9.182;2022-08-01T05:52:16;1.63;;;1.45;;
3307;SDS011;1666;48.898;9.182;2022-08-01T05:54:46;4.88;;;1.90;;
3307;SDS011;1666;48.898;9.182;2022-08-01T05:57:16;2.08;;;1.77;;
3307;SDS011;1666;48.898;9.182;2022-08-01T05:59:45;3.67;;;1.70;;
3307;SDS011;1666;48.898;9.182;2022-08-01T06:02:15;5.20;;;2.47;;
3307;SDS011;1666;48.898;9.182;2022-08-01T06:04:45;5.43;;;1.92;;
3307;SDS011;1666;48.898;9.182;2022-08-01T06:07:18;5.93;;;2.40;;
3307;SDS011;1666;48.898;9.182;2022-08-01T06:09:48;6.53;;;1.83;;
3307;SDS011;1666;48.898;9.182;2022-08-01T06:12:17;3.55;;;1.70;;
3307;SDS011;1666;48.898;9.182;2022-08-01T06:14:48;4.32;;;1.83;;
3307;SDS011;1666;48.898;9.182;2022-08-01T06:17:18;3.97;;;1.67;;
3307;SDS011;1666;48.898;9.182;2022-08-01T06:19:48;4.68;;;1.83;;
3307;SDS011;1666;48.898;9.182;2022-08-01T06:22:20;1.85;;;1.30;;
3307;SDS011;1666;48.898;9.182;2022-08-01T06:24:51;3.67;;;1.50;;
3307;SDS011;1666;48.898;9.182;2022-08-01T06:27:21;4.68;;;1.27;;
3307;SDS011;1666;48.898;9.182;2022-08-01T06:29:51;2.60;;;1.20;;
3307;SDS011;1666;48.898;9.182;2022-08-01T06:32:23;5.10;;;1.13;;
3307;SDS011;1666;48.898;9.182;2022-08-01T06:34:54;1.88;;;1.35;;
3307;SDS011;1666;48.898;9.182;2022-08-01T06:37:27;2.47;;;1.25;;
3307;SDS011;1666;48.898;9.182;2022-08-01T06:39:59;3.13;;;1.20;;
3307;SDS011;1666;48.898;9.182;2022-08-01T06:42:30;3.30;;;1.35;;
3307;SDS011;1666;48.898;9.182;2022-08-01T06:45:02;1.48;;;1.35;;
3307;SDS011;1666;48.898;9.182;2022-08-01T06:47:32;4.10;;;1.30;;
3307;SDS011;1666;48.898;9.182;2022-08-01T06:50:08;3.35;;;1.25;;
3307;SDS011;1666;48.898;9.182;2022-08-01T06:52:43;2.72;;;1.50;;
3307;SDS011;1666;48.898;9.182;2022-08-01T06:55:13;1.60;;;1.13;;
3307;SDS011;1666;48.898;9.182;2022-08-01T06:57:47;2.35;;;1.20;;
3307;SDS011;1666;48.898;9.182;2022-08-01T07:00:20;3.60;;;1.50;;
3307;SDS011;1666;48.898;9.182;2022-08-01T07:02:52;5.53;;;1.67;;
3307;SDS011;1666;48.898;9.182;2022-08-01T07:05:24;1.77;;;1.10;;
3307;SDS011;1666;48.898;9.182;2022-08-01T07:07:59;1.95;;;1.48;;
3307;SDS011;1666;48.898;9.182;2022-08-01T07:10:29;1.70;;;1.30;;
3307;SDS011;1666;48.898;9.182;2022-08-01T07:12:59;3.10;;;1.20;;
3307;SDS011;1666;48.898;9.182;2022-08-01T07:15:29;2.50;;;1.40;;
3307;SDS011;1666;48.898;9.182;2022-08-01T07:17:59;1.67;;;1.30;;
3307;SDS011;1666;48.898;9.182;2022-08-01T07:20:33;1.75;;;1.42;;
3307;SDS011;1666;48.898;9.182;2022-08-01T07:23:21;1.45;;;1.33;;
3307;SDS011;1666;48.898;9.182;2022-08-01T07:26:02;5.32;;;1.83;;
3307;SDS011;1666;48.898;9.182;2022-08-01T07:28:33;1.75;;;1.45;;
3307;SDS011;1666;48.898;9.182;2022-08-01T07:31:09;2.15;;;1.30;;
3307;SDS011;1666;48.898;9.182;2022-08-01T07:33:39;1.65;;;1.30;;
3307;SDS011;1666;48.898;9.182;2022-08-01T07:36:14;2.55;;;1.50;;
3307;SDS011;1666;48.898;9.182;2022-08-01T07:38:47;3.33;;;1.30;;
3307;SDS011;1666;48.898;9.182;2022-08-01T07:41:17;5.13;;;2.17;;
3307;SDS011;1666;48.898;9.182;2022-08-01T07:44:07;2.78;;;1.25;;
3307;SDS011;1666;48.898;9.182;2022-08-01T07:46:37;4.43;;;1.67;;
3307;SDS011;1666;48.898;9.182;2022-08-01T07:49:07;3.13;;;1.60;;
3307;SDS011;1666;48.898;9.182;2022-08-01T07:51:37;7.88;;;1.58;;
3307;SDS011;1666;48.898;9.182;2022-08-01T07:54:09;4.22;;;1.58;;
3307;SDS011;1666;48.898;9.182;2022-08-01T07:56:39;4.47;;;1.42;;
3307;SDS011;1666;48.898;9.182;2022-08-01T07:59:09;3.65;;;1.55;;
3307;SDS011;1666;48.898;9.182;2022-08-01T08:01:49;3.45;;;1.40;;
3307;SDS011;1666;48.898;9.182;2022-08-01T08:04:19;2.20;;;1.35;;
3307;SDS011;1666;48.898;9.182;2022-08-01T08:06:49;3.92;;;1.60;;
3307;SDS011;1666;48.898;9.182;2022-08-01T08:09:22;5.53;;;1.67;;
3307;SDS011;1666;48.898;9.182;2022-08-01T08:11:52;4.60;;;1.70;;
3307;SDS011;1666;48.898;9.182;2022-08-01T08:14:22;1.50;;;1.40;;
3307;SDS011;1666;48.898;9.182;2022-08-01T08:16:58;1.70;;;1.13;;
3307;SDS011;1666;48.898;9.182;2022-08-01T08:19:28;4.60;;;1.48;;
3307;SDS011;1666;48.898;9.182;2022-08-01T08:22:04;1.70;;;1.35;;
3307;SDS011;1666;48.898;9.182;2022-08-01T08:24:38;2.95;;;1.50;;
3307;SDS011;1666;48.898;9.182;2022-08-01T08:27:12;2.78;;;1.85;;
3307;SDS011;1666;48.898;9.182;2022-08-01T08:29:44;1.85;;;1.30;;
3307;SDS011;1666;48.898;9.182;2022-08-01T08:32:14;4.57;;;2.65;;
3307;SDS011;1666;48.898;9.182;2022-08-01T08:34:44;3.63;;;1.90;;
3307;SDS011;1666;48.898;9.182;2022-08-01T08:37:15;3.85;;;2.00;;
3307;SDS011;1666;48.898;9.182;2022-08-01T08:39:48;2.58;;;1.80;;
3307;SDS011;1666;48.898;9.182;2022-08-01T08:42:18;4.97;;;2.10;;
3307;SDS011;1666;48.898;9.182;2022-08-01T08:44:48;1.77;;;1.42;;
3307;SDS011;1666;48.898;9.182;2022-08-01T08:47:21;9.10;;;1.88;;
3307;SDS011;1666;48.898;9.182;2022-08-01T08:49:53;1.70;;;1.27;;
3307;SDS011;1666;48.898;9.182;2022-08-01T08:52:24;4.60;;;1.60;;
3307;SDS011;1666;48.898;9.182;2022-08-01T08:54:57;3.80;;;1.70;;
3307;SDS011;1666;48.898;9.182;2022-08-01T08:57:28;2.33;;;1.60;;
3307;SDS011;1666;48.898;9.182;2022-08-01T08:59:58;2.58;;;1.80;;
3307;SDS011;1666;48.898;9.182;2022-08-01T09:02:28;2.67;;;1.95;;
3307;SDS011;1666;48.898;9.182;2022-08-01T09:04:58;7.35;;;3.60;;
3307;SDS011;1666;48.898;9.182;2022-08-01T09:07:28;6.28;;;4.05;;
3307;SDS011;1666;48.898;9.182;2022-08-01T09:10:00;5.03;;;3.40;;
3307;SDS011;1666;48.898;9.182;2022-08-01T09:12:31;3.95;;;3.28;;
3307;SDS011;1666;48.898;9.182;2022-08-01T09:15:01;6.80;;;3.28;;
3307;SDS011;1666;48.898;9.182;2022-08-01T09:17:38;5.25;;;3.72;;
3307;SDS011;1666;48.898;9.182;2022-08-01T09:20:21;7.25;;;3.60;;
3307;SDS011;1666;48.898;9.182;2022-08-01T09:22:53;4.65;;;3.40;;
3307;SDS011;1666;48.898;9.182;2022-08-01T09:25:25;5.22;;;2.67;;
3307;SDS011;1666;48.898;9.182;2022-08-01T09:28:13;3.55;;;3.25;;
3307;SDS011;1666;48.898;9.182;2022-08-01T09:30:43;5.28;;;3.10;;
3307;SDS011;1666;48.898;9.182;2022-08-01T09:33:13;3.63;;;3.15;;
3307;SDS011;1666;48.898;9.182;2022-08-01T09:35:53;3.83;;;3.08;;
3307;SDS011;1666;48.898;9.182;2022-08-01T09:38:25;4.72;;;2.92;;
3307;SDS011;1666;48.898;9.182;2022-08-01T09:40:58;5.07;;;2.97;;
3307;SDS011;1666;48.898;9.182;2022-08-01T09:43:30;4.07;;;2.70;;
3307;SDS011;1666;48.898;9.182;2022-08-01T09:46:04;5.65;;;2.75;;
3307;SDS011;1666;48.898;9.182;2022-08-01T09:48:38;3.42;;;2.45;;
3307;SDS011;1666;48.898;9.182;2022-08-01T09:51:14;5.47;;;3.78;;
3307;SDS011;1666;48.898;9.182;2022-08-01T09:54:27;4.03;;;2.70;;
3307;SDS011;1666;48.898;9.182;2022-08-01T09:57:11;3.08;;;2.50;;
3307;SDS011;1666;48.898;9.182;2022-08-01T09:59:42;2.63;;;2.20;;
3307;SDS011;1666;48.898;9.182;2022-08-01T10:02:27;4.70;;;2.20;;
3307;SDS011;1666;48.898;9.182;2022-08-01T10:07:34;3.38;;;2.10;;
3307;SDS011;1666;48.898;9.182;2022-08-01T10:10:10;2.22;;;1.98;;
3307;SDS011;1666;48.898;9.182;2022-08-01T10:12:44;3.42;;;2.00;;
3307;SDS011;1666;48.898;9.182;2022-08-01T10:15:17;2.45;;;1.90;;
3307;SDS011;1666;48.898;9.182;2022-08-01T10:18:03;3.10;;;2.00;;
3307;SDS011;1666;48.898;9.182;2022-08-01T10:20:51;2.97;;;1.52;;
3307;SDS011;1666;48.898;9.182;2022-08-01T10:23:23;2.35;;;2.00;;
3307;SDS011;1666;48.898;9.182;2022-08-01T10:26:06;5.35;;;2.00;;
3307;SDS011;1666;48.898;9.182;2022-08-01T10:28:39;2.85;;;1.70;;
3307;SDS011;1666;48.898;9.182;2022-08-01T10:31:13;3.95;;;1.80;;
3307;SDS011;1666;48.898;9.182;2022-08-01T10:33:43;4.22;;;1.90;;
3307;SDS011;1666;48.898;9.182;2022-08-01T10:36:19;4.68;;;1.70;;
3307;SDS011;1666;48.898;9.182;2022-08-01T10:38:51;2.65;;;1.77;;
3307;SDS011;1666;48.898;9.182;2022-08-01T10:41:22;3.30;;;1.98;;
3307;SDS011;1666;48.898;9.182;2022-08-01T10:43:56;3.33;;;2.10;;
3307;SDS011;1666;48.898;9.182;2022-08-01T10:46:26;5.97;;;2.10;;
3307;SDS011;1666;48.898;9.182;2022-08-01T10:49:00;2.97;;;1.70;;
3307;SDS011;1666;48.898;9.182;2022-08-01T10:51:34;3.92;;;2.00;;
3307;SDS011;1666;48.898;9.182;2022-08-01T10:54:20;3.05;;;2.05;;
3307;SDS011;1666;48.898;9.182;2022-08-01T10:56:56;3.22;;;1.98;;
3307;SDS011;1666;48.898;9.182;2022-08-01T10:59:35;1.90;;;1.70;;
3307;SDS011;1666;48.898;9.182;2022-08-01T11:02:27;1.90;;;1.80;;
3307;SDS011;1666;48.898;9.182;2022-08-01T11:05:01;2.70;;;2.05;;
3307;SDS011;1666;48.898;9.182;2022-08-01T11:07:38;5.72;;;1.75;;
3307;SDS011;1666;48.898;9.182;2022-08-01T11:10:18;2.33;;;1.73;;
3307;SDS011;1666;48.898;9.182;2022-08-01T11:12:53;3.50;;;1.90;;
3307;SDS011;1666;48.898;9.182;2022-08-01T11:15:26;2.38;;;2.10;;
3307;SDS011;1666;48.898;9.182;2022-08-01T11:17:58;2.35;;;2.00;;
3307;SDS011;1666;48.898;9.182;2022-08-01T11:20:31;3.63;;;1.90;;
3307;SDS011;1666;48.898;9.182;2022-08-01T11:23:17;3.25;;;2.20;;
3307;SDS011;1666;48.898;9.182;2022-08-01T11:28:43;4.13;;;2.08;;
3307;SDS011;1666;48.898;9.182;2022-08-01T11:31:37;2.13;;;2.00;;
3307;SDS011;1666;48.898;9.182;2022-08-01T11:34:07;2.25;;;2.13;;
3307;SDS011;1666;48.898;9.182;2022-08-01T11:36:37;3.10;;;1.92;;
3307;SDS011;1666;48.898;9.182;2022-08-01T11:39:24;2.30;;;2.10;;
3307;SDS011;1666;48.898;9.182;2022-08-01T11:41:55;4.15;;;1.90;;
3307;SDS011;1666;48.898;9.182;2022-08-01T11:44:52;1.92;;;1.73;;
3307;SDS011;1666;48.898;9.182;2022-08-01T11:50:31;4.15;;;1.98;;
3307;SDS011;1666;48.898;9.182;2022-08-01T11:53:05;2.70;;;1.90;;
3307;SDS011;1666;48.898;9.182;2022-08-01T11:55:43;2.80;;;1.80;;
3307;SDS011;1666;48.898;9.182;2022-08-01T11:58:20;2.70;;;1.85;;
3307;SDS011;1666;48.898;9.182;2022-08-01T12:00:57;2.20;;;1.73;;
3307;SDS011;1666;48.898;9.182;2022-08-01T12:03:31;2.00;;;1.80;;
3307;SDS011;1666;48.898;9.182;2022-08-01T12:06:02;2.20;;;1.63;;
3307;SDS011;1666;48.898;9.182;2022-08-01T12:08:32;2.67;;;1.70;;
3307;SDS011;1666;48.898;9.182;2022-08-01T12:11:03;3.45;;;1.90;;
3307;SDS011;1666;48.898;9.182;2022-08-01T12:13:40;3.58;;;1.73;;
3307;SDS011;1666;48.898;9.182;2022-08-01T12:16:11;3.28;;;1.98;;
3307;SDS011;1666;48.898;9.182;2022-08-01T12:18:44;2.03;;;1.80;;
3307;SDS011;1666;48.898;9.182;2022-08-01T12:21:13;3.13;;;1.98;;
3307;SDS011;1666;48.898;9.182;2022-08-01T12:23:45;1.75;;;1.65;;
3307;SDS011;1666;48.898;9.182;2022-08-01T12:26:38;3.15;;;1.80;;
3307;SDS011;1666;48.898;9.182;2022-08-01T12:29:10;8.40;;;2.25;;
3307;SDS011;1666;48.898;9.182;2022-08-01T12:32:00;2.47;;;2.00;;
3307;SDS011;1666;48.898;9.182;2022-08-01T12:34:33;3.25;;;1.80;;
3307;SDS011;1666;48.898;9.182;2022-08-01T12:37:04;2.10;;;1.70;;
3307;SDS011;1666;48.898;9.182;2022-08-01T12:39:35;4.53;;;1.75;;
3307;SDS011;1666;48.898;9.182;2022-08-01T12:42:06;1.88;;;1.40;;
3307;SDS011;1666;48.898;9.182;2022-08-01T12:44:37;2.85;;;1.50;;
3307;SDS011;1666;48.898;9.182;2022-08-01T12:47:08;3.97;;;1.90;;
3307;SDS011;1666;48.898;9.182;2022-08-01T12:49:42;2.00;;;1.70;;
3307;SDS011;1666;48.898;9.182;2022-08-01T12:57:32;4.35;;;1.80;;
3307;SDS011;1666;48.898;9.182;2022-08-01T13:00:07;1.73;;;1.60;;
3307;SDS011;1666;48.898;9.182;2022-08-01T13:02:45;1.80;;;1.70;;
3307;SDS011;1666;48.898;9.182;2022-08-01T13:05:19;2.28;;;1.70;;
3307;SDS011;1666;48.898;9.182;2022-08-01T13:07:53;4.65;;;1.65;;
3307;SDS011;1666;48.898;9.182;2022-08-01T13:10:25;1.88;;;1.38;;
3307;SDS011;1666;48.898;9.182;2022-08-01T13:12:56;1.60;;;1.50;;
3307;SDS011;1666;48.898;9.182;2022-08-01T13:15:28;2.17;;;1.55;;
3307;SDS011;1666;48.898;9.182;2022-08-01T13:21:09;1.52;;;1.40;;
3307;SDS011;1666;48.898;9.182;2022-08-01T13:23:40;1.90;;;1.52;;
3307;SDS011;1666;48.898;9.182;2022-08-01T13:26:39;1.65;;;1.35;;
3307;SDS011;1666;48.898;9.182;2022-08-01T13:29:10;1.42;;;1.33;;
3307;SDS011;1666;48.898;9.182;2022-08-01T13:31:42;1.77;;;1.50;;
3307;SDS011;1666;48.898;9.182;2022-08-01T13:34:14;3.58;;;1.63;;
3307;SDS011;1666;48.898;9.182;2022-08-01T13:36:47;2.75;;;1.45;;
3307;SDS011;1666;48.898;9.182;2022-08-01T13:39:17;2.17;;;1.45;;
3307;SDS011;1666;48.898;9.182;2022-08-01T13:41:59;2.20;;;1.60;;
3307;SDS011;1666;48.898;9.182;2022-08-01T13:44:30;1.40;;;1.20;;
3307;SDS011;1666;48.898;9.182;2022-08-01T13:47:00;3.60;;;1.30;;
3307;SDS011;1666;48.898;9.182;2022-08-01T13:49:41;3.35;;;1.63;;
3307;SDS011;1666;48.898;9.182;2022-08-01T13:52:13;2.45;;;1.52;;
3307;SDS011;1666;48.898;9.182;2022-08-01T13:54:44;3.90;;;1.50;;
3307;SDS011;1666;48.898;9.182;2022-08-01T13:57:14;1.80;;;1.38;;
3307;SDS011;1666;48.898;9.182;2022-08-01T13:59:44;2.38;;;1.30;;
3307;SDS011;1666;48.898;9.182;2022-08-01T14:02:16;2.70;;;1.45;;
3307;SDS011;1666;48.898;9.182;2022-08-01T14:04:45;4.13;;;1.60;;
3307;SDS011;1666;48.898;9.182;2022-08-01T14:07:18;2.65;;;1.58;;
3307;SDS011;1666;48.898;9.182;2022-08-01T14:09:48;3.47;;;1.63;;
3307;SDS011;1666;48.898;9.182;2022-08-01T14:12:38;1.50;;;1.30;;
3307;SDS011;1666;48.898;9.182;2022-08-01T14:15:11;1.95;;;1.65;;
3307;SDS011;1666;48.898;9.182;2022-08-01T14:18:01;1.77;;;1.40;;
3307;SDS011;1666;48.898;9.182;2022-08-01T14:20:31;2.50;;;1.83;;
3307;SDS011;1666;48.898;9.182;2022-08-01T14:23:04;1.70;;;1.50;;
3307;SDS011;1666;48.898;9.182;2022-08-01T14:25:35;3.20;;;1.50;;
3307;SDS011;1666;48.898;9.182;2022-08-01T14:28:25;2.15;;;1.42;;
3307;SDS011;1666;48.898;9.182;2022-08-01T14:30:56;1.75;;;1.42;;
3307;SDS011;1666;48.898;9.182;2022-08-01T14:33:27;2.30;;;1.45;;
3307;SDS011;1666;48.898;9.182;2022-08-01T14:35:59;2.15;;;1.38;;
3307;SDS011;1666;48.898;9.182;2022-08-01T14:38:55;3.38;;;1.60;;
3307;SDS011;1666;48.898;9.182;2022-08-01T14:41:26;2.92;;;1.67;;
3307;SDS011;1666;48.898;9.182;2022-08-01T14:43:56;6.40;;;1.60;;
3307;SDS011;1666;48.898;9.182;2022-08-01T14:46:26;2.22;;;1.70;;
3307;SDS011;1666;48.898;9.182;2022-08-01T14:48:59;5.63;;;2.13;;
3307;SDS011;1666;48.898;9.182;2022-08-01T14:51:29;2.72;;;1.50;;
3307;SDS011;1666;48.898;9.182;2022-08-01T14:54:04;2.67;;;1.50;;
3307;SDS011;1666;48.898;9.182;2022-08-01T14:56:34;1.90;;;1.40;;
3307;SDS011;1666;48.898;9.182;2022-08-01T14:59:04;2.10;;;1.50;;
3307;SDS011;1666;48.898;9.182;2022-08-01T15:01:47;1.88;;;1.42;;
3307;SDS011;1666;48.898;9.182;2022-08-01T15:04:17;1.42;;;1.33;;
3307;SDS011;1666;48.898;9.182;2022-08-01T15:06:47;3.25;;;1.48;;
3307;SDS011;1666;48.898;9.182;2022-08-01T15:09:19;3.28;;;1.60;;
3307;SDS011;1666;48.898;9.182;2022-08-01T15:11:49;4.22;;;1.50;;
3307;SDS011;1666;48.898;9.182;2022-08-01T15:14:19;4.35;;;2.08;;
3307;SDS011;1666;48.898;9.182;2022-08-01T15:17:02;3.10;;;1.30;;
3307;SDS011;1666;48.898;9.182;2022-08-01T15:19:34;1.67;;;1.33;;
3307;SDS011;1666;48.898;9.182;2022-08-01T15:22:08;2.35;;;1.60;;
3307;SDS011;1666;48.898;9.182;2022-08-01T15:24:40;1.45;;;1.10;;
3307;SDS011;1666;48.898;9.182;2022-08-01T15:27:11;2.97;;;1.27;;
3307;SDS011;1666;48.898;9.182;2022-08-01T15:29:41;2.33;;;1.63;;
3307;SDS011;1666;48.898;9.182;2022-08-01T15:32:11;2.42;;;1.20;;
3307;SDS011;1666;48.898;9.182;2022-08-01T15:34:41;3.25;;;1.50;;
3307;SDS011;1666;48.898;9.182;2022-08-01T15:37:12;1.45;;;1.23;;
3307;SDS011;1666;48.898;9.182;2022-08-01T15:39:44;2.28;;;1.40;;
3307;SDS011;1666;48.898;9.182;2022-08-01T15:42:15;1.95;;;1.15;;
3307;SDS011;1666;48.898;9.182;2022-08-01T15:44:52;1.85;;;1.30;;
3307;SDS011;1666;48.898;9.182;2022-08-01T15:47:22;1.85;;;1.25;;
3307;SDS011;1666;48.898;9.182;2022-08-01T15:49:52;3.65;;;1.25;;
3307;SDS011;1666;48.898;9.182;2022-08-01T15:52:25;1.42;;;1.25;;
3307;SDS011;1666;48.898;9.182;2022-08-01T15:54:59;5.38;;;1.50;;
3307;SDS011;1666;48.898;9.182;2022-08-01T15:57:30;2.65;;;1.30;;
3307;SDS011;1666;48.898;9.182;2022-08-01T15:59:59;1.30;;;1.20;;
3307;SDS011;1666;48.898;9.182;2022-08-01T16:02:29;2.45;;;1.10;;
3307;SDS011;1666;48.898;9.182;2022-08-01T16:05:01;2.17;;;1.30;;
3307;SDS011;1666;48.898;9.182;2022-08-01T16:07:31;2.10;;;1.05;;
3307;SDS011;1666;48.898;9.182;2022-08-01T16:10:23;2.35;;;1.10;;
3307;SDS011;1666;48.898;9.182;2022-08-01T16:12:54;1.48;;;1.10;;
3307;SDS011;1666;48.898;9.182;2022-08-01T16:15:31;1.55;;;1.30;;